Swift — WDC4341 — position and weather

sailwx.info

Track history (hours):
 
Tides and Currents Weather Stations Pressure Air Temp Water Temp Dewpoint Dewpoint Depression Visibility Wind Speed Wind Dir Waves Ship Positions

Swift

Owner: VIRGINIA PILOT BOAT CORPORATION, VIRGINIA BEACH, VA. More information available from US FCC via Universal Licensing System and Coast Guard Vessel Documentation Center.

Last reported at 2018-Jan-22 21:58 UTC. Time now 2018-Jan-23 00:11 UTC.
Position N 36°51' W 076°19'.

Type: Pilot. MMSI: 367023320.

Date/timePositionNaut miles runAvg speedWind from/ knotsBaromVisibWave heightAir tempDewpointWater temp
2018-Jan-22 21:58N 36°51' W 076°19'4 0.3
2018-Jan-22 10:28N 36°55' W 076°20'4 7.7
2018-Jan-22 10:00N 36°51' W 076°19'2 0.2
2018-Jan-22 02:07N 36°53' W 076°21'0 3.8
2018-Jan-22 02:00N 36°52' W 076°21'4 0.3
2018-Jan-21 14:18N 36°56' W 076°20'1 0.3
2018-Jan-21 11:36N 36°55' W 076°20'0 3.7
2018-Jan-21 11:30N 36°56' W 076°20'0 0.0
2018-Jan-20 11:12N 36°56' W 076°20'1 0.1
2018-Jan-20 02:24N 36°55' W 076°20'0 0.2
2018-Jan-20 02:00N 36°55' W 076°20'1 0.2
2018-Jan-19 20:30N 36°56' W 076°20'1 0.2
2018-Jan-19 15:44N 36°55' W 076°20'0 0.2
2018-Jan-19 15:05N 36°55' W 076°20'0 1.6
2018-Jan-19 15:00N 36°55' W 076°20'0 0.0
2018-Jan-19 14:30N 36°55' W 076°20'0 0.0
2018-Jan-19 14:01N 36°55' W 076°20'0 0.0
2018-Jan-19 13:31N 36°55' W 076°20'0 0.0
2018-Jan-19 13:00N 36°55' W 076°20'0 0.2
2018-Jan-19 12:31N 36°55' W 076°20'3 0.2
2018-Jan-18 21:46N 36°52' W 076°20'1 2.6
2018-Jan-18 21:21N 36°51' W 076°19'1 2.3
2018-Jan-18 21:00N 36°52' W 076°20'3 0.7
2018-Jan-18 16:55N 36°55' W 076°20'0 0.0
2018-Jan-18 16:30N 36°55' W 076°20'0 0.0
2018-Jan-18 15:56N 36°55' W 076°20'0 0.0
2018-Jan-18 15:23N 36°55' W 076°20'0 0.0
2018-Jan-18 15:01N 36°55' W 076°20'0 0.0
2018-Jan-18 14:30N 36°55' W 076°20'1 1.2
2018-Jan-18 13:49N 36°56' W 076°20'0 0.1
2018-Jan-18 13:13N 36°56' W 076°20'3 0.3
2018-Jan-18 00:41N 36°53' W 076°21'3 2.8
2018-Jan-17 23:31N 36°56' W 076°20'  
Track history (hours):
 
Tides and Currents Weather Stations Pressure Air Temp Water Temp Dewpoint Dewpoint Depression Visibility Wind Speed Wind Dir Waves Ship Positions

Swift

Owner: VIRGINIA PILOT BOAT CORPORATION, VIRGINIA BEACH, VA. More information available from US FCC via Universal Licensing System and Coast Guard Vessel Documentation Center.

Last reported at 2018-Jan-22 21:58 UTC. Time now 2018-Jan-23 00:11 UTC.
Position N 36°51' W 076°19'.

Type: Pilot. MMSI: 367023320.

Date/timePositionNaut miles runAvg speedWind from/ knotsBaromVisibWave heightAir tempDewpointWater temp
2018-Jan-22 21:58N 36°51' W 076°19'4 0.3
2018-Jan-22 10:28N 36°55' W 076°20'4 7.7
2018-Jan-22 10:00N 36°51' W 076°19'2 0.2
2018-Jan-22 02:07N 36°53' W 076°21'0 3.8
2018-Jan-22 02:00N 36°52' W 076°21'4 0.3
2018-Jan-21 14:18N 36°56' W 076°20'1 0.3
2018-Jan-21 11:36N 36°55' W 076°20'0 3.7
2018-Jan-21 11:30N 36°56' W 076°20'0 0.0
2018-Jan-20 11:12N 36°56' W 076°20'1 0.1
2018-Jan-20 02:24N 36°55' W 076°20'0 0.2
2018-Jan-20 02:00N 36°55' W 076°20'1 0.2
2018-Jan-19 20:30N 36°56' W 076°20'1 0.2
2018-Jan-19 15:44N 36°55' W 076°20'0 0.2
2018-Jan-19 15:05N 36°55' W 076°20'0 1.6
2018-Jan-19 15:00N 36°55' W 076°20'0 0.0
2018-Jan-19 14:30N 36°55' W 076°20'0 0.0
2018-Jan-19 14:01N 36°55' W 076°20'0 0.0
2018-Jan-19 13:31N 36°55' W 076°20'0 0.0
2018-Jan-19 13:00N 36°55' W 076°20'0 0.2
2018-Jan-19 12:31N 36°55' W 076°20'3 0.2
2018-Jan-18 21:46N 36°52' W 076°20'1 2.6
2018-Jan-18 21:21N 36°51' W 076°19'1 2.3
2018-Jan-18 21:00N 36°52' W 076°20'3 0.7
2018-Jan-18 16:55N 36°55' W 076°20'0 0.0
2018-Jan-18 16:30N 36°55' W 076°20'0 0.0
2018-Jan-18 15:56N 36°55' W 076°20'0 0.0
2018-Jan-18 15:23N 36°55' W 076°20'0 0.0
2018-Jan-18 15:01N 36°55' W 076°20'0 0.0
2018-Jan-18 14:30N 36°55' W 076°20'1 1.2
2018-Jan-18 13:49N 36°56' W 076°20'0 0.1
2018-Jan-18 13:13N 36°56' W 076°20'3 0.3
2018-Jan-18 00:41N 36°53' W 076°21'3 2.8
2018-Jan-17 23:31N 36°56' W 076°20'  

Dump ship's entire track history